sensor_id;sensor_type;location;lat;lon;timestamp;pressure;altitude;pressure_sealevel;temperature;humidity
59831;BME280;45711;50.108;13.712;2024-01-10T00:00:27;99245.78;;;-9.92;86.84
59831;BME280;45711;50.108;13.712;2024-01-10T00:02:52;99237.66;;;-9.87;88.34
59831;BME280;45711;50.108;13.712;2024-01-10T00:05:18;99235.88;;;-9.87;87.80
59831;BME280;45711;50.108;13.712;2024-01-10T00:07:44;99234.59;;;-9.92;88.32
59831;BME280;45711;50.108;13.712;2024-01-10T00:10:10;99244.84;;;-9.68;89.47
59831;BME280;45711;50.108;13.712;2024-01-10T00:12:37;99243.91;;;-9.56;89.69
59831;BME280;45711;50.108;13.712;2024-01-10T00:15:03;99233.38;;;-10.10;88.97
59831;BME280;45711;50.108;13.712;2024-01-10T00:17:29;99244.03;;;-10.38;89.82
59831;BME280;45711;50.108;13.712;2024-01-10T00:19:55;99245.25;;;-10.30;91.41
59831;BME280;45711;50.108;13.712;2024-01-10T00:22:21;99241.47;;;-10.15;91.70
59831;BME280;45711;50.108;13.712;2024-01-10T00:24:47;99244.91;;;-10.03;91.86
59831;BME280;45711;50.108;13.712;2024-01-10T00:27:12;99249.53;;;-9.96;90.80
59831;BME280;45711;50.108;13.712;2024-01-10T00:29:39;99234.31;;;-10.12;90.28
59831;BME280;45711;50.108;13.712;2024-01-10T00:32:08;99227.03;;;-10.06;90.16
59831;BME280;45711;50.108;13.712;2024-01-10T00:34:33;99228.09;;;-10.09;90.28
59831;BME280;45711;50.108;13.712;2024-01-10T00:36:59;99229.13;;;-10.12;90.05
59831;BME280;45711;50.108;13.712;2024-01-10T00:39:24;99225.28;;;-9.95;89.84
59831;BME280;45711;50.108;13.712;2024-01-10T00:41:50;99222.47;;;-9.92;89.59
59831;BME280;45711;50.108;13.712;2024-01-10T00:44:15;99217.72;;;-9.98;89.13
59831;BME280;45711;50.108;13.712;2024-01-10T00:46:42;99220.31;;;-10.31;89.51
59831;BME280;45711;50.108;13.712;2024-01-10T00:49:08;99218.78;;;-10.34;90.37
59831;BME280;45711;50.108;13.712;2024-01-10T00:51:33;99220.41;;;-10.44;90.67
59831;BME280;45711;50.108;13.712;2024-01-10T00:53:59;99221.16;;;-10.08;90.98
59831;BME280;45711;50.108;13.712;2024-01-10T00:56:25;99223.16;;;-9.90;89.50
59831;BME280;45711;50.108;13.712;2024-01-10T00:58:50;99222.91;;;-9.98;89.33
59831;BME280;45711;50.108;13.712;2024-01-10T01:01:16;99219.63;;;-10.00;88.66
59831;BME280;45711;50.108;13.712;2024-01-10T01:03:43;99217.72;;;-10.20;89.49
59831;BME280;45711;50.108;13.712;2024-01-10T01:06:08;99217.97;;;-10.01;88.83
59831;BME280;45711;50.108;13.712;2024-01-10T01:08:34;99225.91;;;-10.49;89.08
59831;BME280;45711;50.108;13.712;2024-01-10T01:10:59;99231.59;;;-10.10;90.69
59831;BME280;45711;50.108;13.712;2024-01-10T01:13:25;99227.34;;;-10.33;89.67
59831;BME280;45711;50.108;13.712;2024-01-10T01:15:50;99234.91;;;-10.30;89.63
59831;BME280;45711;50.108;13.712;2024-01-10T01:18:16;99230.03;;;-10.24;89.57
59831;BME280;45711;50.108;13.712;2024-01-10T01:20:43;99234.44;;;-10.13;90.36
59831;BME280;45711;50.108;13.712;2024-01-10T01:23:09;99240.69;;;-10.04;90.51
59831;BME280;45711;50.108;13.712;2024-01-10T01:25:34;99233.28;;;-10.09;90.38
59831;BME280;45711;50.108;13.712;2024-01-10T01:28:00;99225.16;;;-10.04;89.39
59831;BME280;45711;50.108;13.712;2024-01-10T01:30:25;99229.47;;;-10.16;89.28
59831;BME280;45711;50.108;13.712;2024-01-10T01:32:51;99231.44;;;-10.42;89.37
59831;BME280;45711;50.108;13.712;2024-01-10T01:35:17;99222.66;;;-10.28;90.35
59831;BME280;45711;50.108;13.712;2024-01-10T01:37:48;99233.38;;;-10.22;90.09
59831;BME280;45711;50.108;13.712;2024-01-10T01:40:14;99225.25;;;-10.40;90.43
59831;BME280;45711;50.108;13.712;2024-01-10T01:42:39;99216.81;;;-9.97;91.63
59831;BME280;45711;50.108;13.712;2024-01-10T01:45:06;99211.47;;;-10.06;89.61
59831;BME280;45711;50.108;13.712;2024-01-10T01:47:32;99207.00;;;-10.16;89.26
59831;BME280;45711;50.108;13.712;2024-01-10T01:49:57;99213.72;;;-10.13;89.44
59831;BME280;45711;50.108;13.712;2024-01-10T01:52:23;99221.84;;;-10.06;89.72
59831;BME280;45711;50.108;13.712;2024-01-10T01:54:51;99219.97;;;-10.27;89.65
59831;BME280;45711;50.108;13.712;2024-01-10T01:57:16;99217.25;;;-10.14;89.58
59831;BME280;45711;50.108;13.712;2024-01-10T01:59:42;99216.31;;;-10.24;89.67
59831;BME280;45711;50.108;13.712;2024-01-10T02:02:08;99221.63;;;-10.26;89.39
59831;BME280;45711;50.108;13.712;2024-01-10T02:04:34;99219.13;;;-10.27;89.56
59831;BME280;45711;50.108;13.712;2024-01-10T02:06:59;99221.00;;;-10.29;89.29
59831;BME280;45711;50.108;13.712;2024-01-10T02:09:25;99210.28;;;-10.36;90.26
59831;BME280;45711;50.108;13.712;2024-01-10T02:11:52;99217.47;;;-10.40;90.25
59831;BME280;45711;50.108;13.712;2024-01-10T02:14:18;99214.53;;;-10.35;90.71
59831;BME280;45711;50.108;13.712;2024-01-10T02:16:44;99217.59;;;-10.30;90.80
59831;BME280;45711;50.108;13.712;2024-01-10T02:19:20;99205.91;;;-10.47;89.71
59831;BME280;45711;50.108;13.712;2024-01-10T02:21:45;99218.53;;;-10.20;90.82
59831;BME280;45711;50.108;13.712;2024-01-10T02:24:11;99210.78;;;-10.31;89.90
59831;BME280;45711;50.108;13.712;2024-01-10T02:26:38;99205.78;;;-10.45;90.33
59831;BME280;45711;50.108;13.712;2024-01-10T02:29:04;99210.06;;;-10.44;89.81
59831;BME280;45711;50.108;13.712;2024-01-10T02:31:30;99211.91;;;-10.46;90.41
59831;BME280;45711;50.108;13.712;2024-01-10T02:33:55;99211.00;;;-10.23;89.96
59831;BME280;45711;50.108;13.712;2024-01-10T02:36:21;99202.56;;;-10.25;90.71
59831;BME280;45711;50.108;13.712;2024-01-10T02:38:46;99202.63;;;-10.38;90.69
59831;BME280;45711;50.108;13.712;2024-01-10T02:41:13;99199.06;;;-10.59;91.54
59831;BME280;45711;50.108;13.712;2024-01-10T02:43:40;99204.75;;;-10.43;91.35
59831;BME280;45711;50.108;13.712;2024-01-10T02:46:05;99203.81;;;-10.42;91.76
59831;BME280;45711;50.108;13.712;2024-01-10T02:48:31;99192.22;;;-10.60;91.33
59831;BME280;45711;50.108;13.712;2024-01-10T02:50:56;99199.53;;;-10.54;92.50
59831;BME280;45711;50.108;13.712;2024-01-10T02:53:22;99200.13;;;-10.50;91.43
59831;BME280;45711;50.108;13.712;2024-01-10T02:55:47;99198.28;;;-10.48;91.70
59831;BME280;45711;50.108;13.712;2024-01-10T02:58:14;99197.94;;;-10.44;92.38
59831;BME280;45711;50.108;13.712;2024-01-10T03:00:41;99199.22;;;-10.38;91.21
59831;BME280;45711;50.108;13.712;2024-01-10T03:03:07;99185.00;;;-10.21;92.03
59831;BME280;45711;50.108;13.712;2024-01-10T03:05:32;99186.28;;;-10.38;91.21
59831;BME280;45711;50.108;13.712;2024-01-10T03:07:58;99186.41;;;-10.28;91.07
59831;BME280;45711;50.108;13.712;2024-01-10T03:10:23;99192.06;;;-10.34;91.63
59831;BME280;45711;50.108;13.712;2024-01-10T03:12:49;99175.47;;;-10.32;91.41
59831;BME280;45711;50.108;13.712;2024-01-10T03:15:15;99177.22;;;-10.44;91.95
59831;BME280;45711;50.108;13.712;2024-01-10T03:17:42;99174.28;;;-10.39;91.53
59831;BME280;45711;50.108;13.712;2024-01-10T03:20:08;99171.09;;;-10.43;91.65
59831;BME280;45711;50.108;13.712;2024-01-10T03:22:34;99170.28;;;-10.32;91.58
59831;BME280;45711;50.108;13.712;2024-01-10T03:25:00;99170.53;;;-10.35;90.95
59831;BME280;45711;50.108;13.712;2024-01-10T03:27:25;99170.41;;;-10.45;91.24
59831;BME280;45711;50.108;13.712;2024-01-10T03:29:51;99169.72;;;-9.91;93.09
59831;BME280;45711;50.108;13.712;2024-01-10T03:32:17;99168.06;;;-10.25;91.23
59831;BME280;45711;50.108;13.712;2024-01-10T03:34:44;99173.47;;;-10.06;91.36
59831;BME280;45711;50.108;13.712;2024-01-10T03:37:09;99178.19;;;-10.00;90.67
59831;BME280;45711;50.108;13.712;2024-01-10T03:39:35;99172.75;;;-10.19;90.78
59831;BME280;45711;50.108;13.712;2024-01-10T03:42:00;99173.47;;;-10.40;91.28
59831;BME280;45711;50.108;13.712;2024-01-10T03:44:26;99173.47;;;-10.28;91.47
59831;BME280;45711;50.108;13.712;2024-01-10T03:46:52;99166.31;;;-10.25;91.12
59831;BME280;45711;50.108;13.712;2024-01-10T03:49:18;99168.06;;;-10.36;91.80
59831;BME280;45711;50.108;13.712;2024-01-10T03:51:45;99169.00;;;-10.38;91.45
59831;BME280;45711;50.108;13.712;2024-01-10T03:54:10;99158.75;;;-10.50;91.53
59831;BME280;45711;50.108;13.712;2024-01-10T03:56:36;99163.44;;;-10.55;91.43
59831;BME280;45711;50.108;13.712;2024-01-10T03:59:01;99159.56;;;-10.61;92.35
59831;BME280;45711;50.108;13.712;2024-01-10T04:01:27;99160.72;;;-10.54;92.72
59831;BME280;45711;50.108;13.712;2024-01-10T04:03:52;99173.78;;;-10.55;92.52
59831;BME280;45711;50.108;13.712;2024-01-10T04:06:18;99169.81;;;-10.15;93.07
59831;BME280;45711;50.108;13.712;2024-01-10T04:08:45;99177.13;;;-10.31;92.19
59831;BME280;45711;50.108;13.712;2024-01-10T04:11:10;99164.97;;;-10.42;92.39
59831;BME280;45711;50.108;13.712;2024-01-10T04:13:36;99164.16;;;-10.42;92.11
59831;BME280;45711;50.108;13.712;2024-01-10T04:16:02;99164.06;;;-10.29;93.08
59831;BME280;45711;50.108;13.712;2024-01-10T04:18:27;99165.47;;;-10.36;92.11
59831;BME280;45711;50.108;13.712;2024-01-10T04:20:53;99154.63;;;-10.42;92.32
59831;BME280;45711;50.108;13.712;2024-01-10T04:23:19;99145.94;;;-10.41;92.74
59831;BME280;45711;50.108;13.712;2024-01-10T04:25:46;99154.75;;;-10.32;93.42
59831;BME280;45711;50.108;13.712;2024-01-10T04:28:11;99157.34;;;-10.32;93.29
59831;BME280;45711;50.108;13.712;2024-01-10T04:30:37;99152.53;;;-10.25;93.21
59831;BME280;45711;50.108;13.712;2024-01-10T04:33:03;99149.59;;;-10.32;92.59
59831;BME280;45711;50.108;13.712;2024-01-10T04:35:29;99142.06;;;-10.13;92.26
59831;BME280;45711;50.108;13.712;2024-01-10T04:37:54;99147.81;;;-10.43;92.50
59831;BME280;45711;50.108;13.712;2024-01-10T04:40:20;99139.94;;;-10.41;92.65
59831;BME280;45711;50.108;13.712;2024-01-10T04:42:47;99146.41;;;-10.47;92.48
59831;BME280;45711;50.108;13.712;2024-01-10T04:45:12;99144.84;;;-10.49;93.68
59831;BME280;45711;50.108;13.712;2024-01-10T04:47:38;99155.59;;;-10.43;92.48
59831;BME280;45711;50.108;13.712;2024-01-10T04:50:04;99149.78;;;-10.24;93.88
59831;BME280;45711;50.108;13.712;2024-01-10T04:52:30;99150.66;;;-10.34;93.01
59831;BME280;45711;50.108;13.712;2024-01-10T04:54:56;99143.59;;;-10.32;92.74
59831;BME280;45711;50.108;13.712;2024-01-10T04:57:21;99143.22;;;-10.28;92.77
59831;BME280;45711;50.108;13.712;2024-01-10T04:59:48;99151.56;;;-10.47;92.35
59831;BME280;45711;50.108;13.712;2024-01-10T05:02:14;99149.56;;;-10.54;92.34
59831;BME280;45711;50.108;13.712;2024-01-10T05:04:39;99146.06;;;-10.53;92.76
59831;BME280;45711;50.108;13.712;2024-01-10T05:07:05;99150.63;;;-10.46;93.09
59831;BME280;45711;50.108;13.712;2024-01-10T05:09:33;99154.63;;;-10.53;92.80
59831;BME280;45711;50.108;13.712;2024-01-10T05:11:58;99152.28;;;-10.22;93.55
59831;BME280;45711;50.108;13.712;2024-01-10T05:14:24;99158.66;;;-10.49;92.95
59831;BME280;45711;50.108;13.712;2024-01-10T05:16:51;99153.69;;;-10.52;93.11
59831;BME280;45711;50.108;13.712;2024-01-10T05:19:19;99153.59;;;-10.39;93.69
59831;BME280;45711;50.108;13.712;2024-01-10T05:21:44;99149.00;;;-10.24;92.82
59831;BME280;45711;50.108;13.712;2024-01-10T05:24:10;99148.72;;;-10.55;93.14
59831;BME280;45711;50.108;13.712;2024-01-10T05:26:35;99150.28;;;-10.41;93.62
59831;BME280;45711;50.108;13.712;2024-01-10T05:29:01;99147.59;;;-10.40;92.91
59831;BME280;45711;50.108;13.712;2024-01-10T05:31:27;99150.50;;;-10.55;93.21
59831;BME280;45711;50.108;13.712;2024-01-10T05:33:54;99150.38;;;-10.54;93.47
59831;BME280;45711;50.108;13.712;2024-01-10T05:36:21;99151.81;;;-10.27;93.32
59831;BME280;45711;50.108;13.712;2024-01-10T05:38:47;99157.47;;;-10.33;92.55
59831;BME280;45711;50.108;13.712;2024-01-10T05:41:13;99160.16;;;-10.24;92.51
59831;BME280;45711;50.108;13.712;2024-01-10T05:43:39;99161.81;;;-10.45;92.37
59831;BME280;45711;50.108;13.712;2024-01-10T05:46:05;99157.59;;;-10.13;93.64
59831;BME280;45711;50.108;13.712;2024-01-10T05:48:30;99156.53;;;-10.44;92.44
59831;BME280;45711;50.108;13.712;2024-01-10T05:50:58;99157.00;;;-10.05;94.06
59831;BME280;45711;50.108;13.712;2024-01-10T05:53:24;99162.41;;;-10.08;93.20
59831;BME280;45711;50.108;13.712;2024-01-10T05:55:50;99157.47;;;-10.33;92.49
59831;BME280;45711;50.108;13.712;2024-01-10T05:58:16;99151.00;;;-10.17;92.82
59831;BME280;45711;50.108;13.712;2024-01-10T06:00:42;99149.94;;;-10.48;92.63
59831;BME280;45711;50.108;13.712;2024-01-10T06:03:07;99152.59;;;-10.60;91.93
59831;BME280;45711;50.108;13.712;2024-01-10T06:05:33;99152.25;;;-10.56;93.27
59831;BME280;45711;50.108;13.712;2024-01-10T06:07:59;99152.78;;;-10.28;93.26
59831;BME280;45711;50.108;13.712;2024-01-10T06:10:25;99155.50;;;-10.30;93.08
59831;BME280;45711;50.108;13.712;2024-01-10T06:12:51;99151.81;;;-10.27;93.07
59831;BME280;45711;50.108;13.712;2024-01-10T06:15:16;99156.06;;;-10.49;93.61
59831;BME280;45711;50.108;13.712;2024-01-10T06:17:42;99163.00;;;-10.38;93.78
59831;BME280;45711;50.108;13.712;2024-01-10T06:20:08;99162.13;;;-10.61;93.80
59831;BME280;45711;50.108;13.712;2024-01-10T06:22:34;99165.59;;;-10.38;94.14
59831;BME280;45711;50.108;13.712;2024-01-10T06:25:02;99162.91;;;-9.92;94.88
59831;BME280;45711;50.108;13.712;2024-01-10T06:27:27;99158.88;;;-10.18;92.71
59831;BME280;45711;50.108;13.712;2024-01-10T06:29:53;99162.19;;;-10.05;92.48
59831;BME280;45711;50.108;13.712;2024-01-10T06:32:19;99154.41;;;-10.16;92.46
59831;BME280;45711;50.108;13.712;2024-01-10T06:34:44;99157.22;;;-10.53;92.67
59831;BME280;45711;50.108;13.712;2024-01-10T06:37:10;99157.47;;;-10.00;94.63
59831;BME280;45711;50.108;13.712;2024-01-10T06:39:36;99156.19;;;-10.28;93.66
59831;BME280;45711;50.108;13.712;2024-01-10T06:42:03;99158.50;;;-10.47;93.85
59831;BME280;45711;50.108;13.712;2024-01-10T06:44:31;99156.78;;;-10.35;93.71
59831;BME280;45711;50.108;13.712;2024-01-10T06:46:57;99149.22;;;-10.27;93.52
59831;BME280;45711;50.108;13.712;2024-01-10T06:49:22;99157.34;;;-10.43;92.72
59831;BME280;45711;50.108;13.712;2024-01-10T06:51:48;99155.31;;;-10.51;93.23
59831;BME280;45711;50.108;13.712;2024-01-10T06:54:13;99154.38;;;-10.50;93.27
59831;BME280;45711;50.108;13.712;2024-01-10T07:03:31;99155.00;;;-10.35;94.57
59831;BME280;45711;50.108;13.712;2024-01-10T07:10:18;99155.72;;;-9.88;95.34
59831;BME280;45711;50.108;13.712;2024-01-10T08:08:07;99205.00;;;-9.33;95.02
59831;BME280;45711;50.108;13.712;2024-01-10T08:17:21;99205.13;;;-8.92;95.31
59831;BME280;45711;50.108;13.712;2024-01-10T08:19:51;99213.41;;;-8.45;93.81
59831;BME280;45711;50.108;13.712;2024-01-10T08:25:37;99216.97;;;-7.94;90.42
59831;BME280;45711;50.108;13.712;2024-01-10T08:28:06;99201.56;;;-7.55;89.30
59831;BME280;45711;50.108;13.712;2024-01-10T09:03:13;99215.97;;;-6.53;86.33
59831;BME280;45711;50.108;13.712;2024-01-10T09:05:56;99213.09;;;-6.60;86.85
59831;BME280;45711;50.108;13.712;2024-01-10T09:08:56;99211.56;;;-6.81;87.70
59831;BME280;45711;50.108;13.712;2024-01-10T09:11:13;99206.09;;;-6.69;88.92
59831;BME280;45711;50.108;13.712;2024-01-10T09:13:39;99209.53;;;-6.59;88.99
59831;BME280;45711;50.108;13.712;2024-01-10T09:17:07;99218.00;;;-6.76;85.12
59831;BME280;45711;50.108;13.712;2024-01-10T09:18:53;99215.41;;;-6.86;86.29
59831;BME280;45711;50.108;13.712;2024-01-10T09:21:22;99221.19;;;-6.53;88.98
59831;BME280;45711;50.108;13.712;2024-01-10T09:23:55;99211.84;;;-6.46;88.87
59831;BME280;45711;50.108;13.712;2024-01-10T09:26:30;99208.81;;;-6.80;86.49
59831;BME280;45711;50.108;13.712;2024-01-10T09:29:43;99211.28;;;-6.30;91.00
59831;BME280;45711;50.108;13.712;2024-01-10T09:32:12;99211.31;;;-6.69;87.07
59831;BME280;45711;50.108;13.712;2024-01-10T09:34:39;99210.75;;;-6.63;87.33
59831;BME280;45711;50.108;13.712;2024-01-10T09:37:07;99209.38;;;-6.76;86.16
59831;BME280;45711;50.108;13.712;2024-01-10T09:39:47;99203.09;;;-6.64;86.94
59831;BME280;45711;50.108;13.712;2024-01-10T09:42:21;99204.50;;;-5.94;90.97
59831;BME280;45711;50.108;13.712;2024-01-10T09:52:39;99186.59;;;-6.16;86.87
59831;BME280;45711;50.108;13.712;2024-01-10T09:55:38;99187.06;;;-5.93;88.69
59831;BME280;45711;50.108;13.712;2024-01-10T09:58:24;99189.47;;;-6.19;85.38
59831;BME280;45711;50.108;13.712;2024-01-10T10:04:47;99198.72;;;-5.60;90.76
59831;BME280;45711;50.108;13.712;2024-01-10T10:10:40;99187.59;;;-5.62;90.64
59831;BME280;45711;50.108;13.712;2024-01-10T10:13:43;99190.13;;;-5.43;90.42
59831;BME280;45711;50.108;13.712;2024-01-10T10:16:23;99180.22;;;-5.67;89.71
59831;BME280;45711;50.108;13.712;2024-01-10T10:19:13;99175.72;;;-5.74;87.05
59831;BME280;45711;50.108;13.712;2024-01-10T10:22:17;99179.78;;;-5.62;88.17
59831;BME280;45711;50.108;13.712;2024-01-10T10:25:09;99176.72;;;-5.48;89.03
59831;BME280;45711;50.108;13.712;2024-01-10T10:27:59;99172.63;;;-5.60;88.20
59831;BME280;45711;50.108;13.712;2024-01-10T10:33:21;99174.13;;;-5.30;89.20
59831;BME280;45711;50.108;13.712;2024-01-10T10:36:00;99166.16;;;-5.28;89.52
59831;BME280;45711;50.108;13.712;2024-01-10T10:39:06;99155.97;;;-5.49;87.11
59831;BME280;45711;50.108;13.712;2024-01-10T10:41:56;99155.09;;;-5.40;87.75
59831;BME280;45711;50.108;13.712;2024-01-10T10:44:37;99162.28;;;-5.24;89.74
59831;BME280;45711;50.108;13.712;2024-01-10T10:50:32;99161.47;;;-5.25;90.75
59831;BME280;45711;50.108;13.712;2024-01-10T10:52:58;99160.50;;;-5.24;89.37
59831;BME280;45711;50.108;13.712;2024-01-10T10:55:27;99147.63;;;-5.08;90.42
59831;BME280;45711;50.108;13.712;2024-01-10T10:58:01;99156.88;;;-5.13;87.81
59831;BME280;45711;50.108;13.712;2024-01-10T11:00:32;99151.41;;;-5.20;88.09
59831;BME280;45711;50.108;13.712;2024-01-10T11:03:00;99153.44;;;-4.60;92.35
59831;BME280;45711;50.108;13.712;2024-01-10T11:05:41;99149.41;;;-4.28;93.93
59831;BME280;45711;50.108;13.712;2024-01-10T11:08:08;99142.41;;;-5.08;86.00
59831;BME280;45711;50.108;13.712;2024-01-10T11:10:41;99138.88;;;-5.16;86.03
59831;BME280;45711;50.108;13.712;2024-01-10T11:13:25;99146.50;;;-4.69;90.53
59831;BME280;45711;50.108;13.712;2024-01-10T11:19:14;99143.38;;;-4.91;87.79
59831;BME280;45711;50.108;13.712;2024-01-10T11:21:56;99137.44;;;-4.75;89.41
59831;BME280;45711;50.108;13.712;2024-01-10T11:24:26;99134.66;;;-4.99;85.64
59831;BME280;45711;50.108;13.712;2024-01-10T11:27:06;99132.56;;;-4.78;86.71
59831;BME280;45711;50.108;13.712;2024-01-10T11:29:32;99129.63;;;-4.75;88.51
59831;BME280;45711;50.108;13.712;2024-01-10T11:31:59;99129.31;;;-4.72;86.19
59831;BME280;45711;50.108;13.712;2024-01-10T11:34:25;99121.41;;;-4.80;87.20
59831;BME280;45711;50.108;13.712;2024-01-10T11:37:09;99124.47;;;-4.67;87.66
59831;BME280;45711;50.108;13.712;2024-01-10T11:39:36;99121.00;;;-4.23;90.68
59831;BME280;45711;50.108;13.712;2024-01-10T11:42:02;99116.69;;;-4.59;88.98
59831;BME280;45711;50.108;13.712;2024-01-10T11:44:28;99119.50;;;-4.78;86.76
59831;BME280;45711;50.108;13.712;2024-01-10T11:46:55;99123.06;;;-4.79;87.10
59831;BME280;45711;50.108;13.712;2024-01-10T11:49:23;99124.47;;;-3.89;94.30
59831;BME280;45711;50.108;13.712;2024-01-10T11:51:52;99118.44;;;-4.41;86.96
59831;BME280;45711;50.108;13.712;2024-01-10T11:54:40;99110.03;;;-4.53;86.86
59831;BME280;45711;50.108;13.712;2024-01-10T11:57:14;99116.28;;;-4.46;86.31
59831;BME280;45711;50.108;13.712;2024-01-10T11:59:46;99117.03;;;-3.67;94.16
59831;BME280;45711;50.108;13.712;2024-01-10T12:02:14;99119.94;;;-3.78;93.72
59831;BME280;45711;50.108;13.712;2024-01-10T12:04:41;99126.88;;;-3.53;94.99
59831;BME280;45711;50.108;13.712;2024-01-10T12:07:07;99113.59;;;-4.02;89.18
59831;BME280;45711;50.108;13.712;2024-01-10T12:09:33;99115.63;;;-3.88;91.19
59831;BME280;45711;50.108;13.712;2024-01-10T12:12:06;99108.44;;;-3.94;92.64
59831;BME280;45711;50.108;13.712;2024-01-10T12:14:31;99101.94;;;-4.16;86.15
59831;BME280;45711;50.108;13.712;2024-01-10T12:16:59;99093.22;;;-4.24;85.56
59831;BME280;45711;50.108;13.712;2024-01-10T12:19:25;99092.72;;;-4.28;82.60
59831;BME280;45711;50.108;13.712;2024-01-10T12:21:53;99089.81;;;-4.25;87.28
59831;BME280;45711;50.108;13.712;2024-01-10T12:24:18;99092.97;;;-4.13;86.67
59831;BME280;45711;50.108;13.712;2024-01-10T12:26:45;99099.41;;;-3.57;93.52
59831;BME280;45711;50.108;13.712;2024-01-10T12:29:11;99090.38;;;-3.71;91.40
59831;BME280;45711;50.108;13.712;2024-01-10T12:31:37;99098.81;;;-3.43;94.56
59831;BME280;45711;50.108;13.712;2024-01-10T12:34:07;99096.28;;;-3.69;90.44
59831;BME280;45711;50.108;13.712;2024-01-10T12:36:35;99088.72;;;-3.72;87.89
59831;BME280;45711;50.108;13.712;2024-01-10T12:39:04;99097.66;;;-3.40;92.79
59831;BME280;45711;50.108;13.712;2024-01-10T12:41:32;99085.13;;;-3.71;90.72
59831;BME280;45711;50.108;13.712;2024-01-10T12:43:59;99078.72;;;-3.85;91.32
59831;BME280;45711;50.108;13.712;2024-01-10T12:46:33;99074.53;;;-3.69;93.12
59831;BME280;45711;50.108;13.712;2024-01-10T12:49:00;99073.97;;;-3.89;89.58
59831;BME280;45711;50.108;13.712;2024-01-10T12:51:27;99073.34;;;-3.75;93.03
59831;BME280;45711;50.108;13.712;2024-01-10T12:53:55;99078.84;;;-3.52;94.73
59831;BME280;45711;50.108;13.712;2024-01-10T12:56:23;99076.44;;;-3.80;93.13
59831;BME280;45711;50.108;13.712;2024-01-10T12:58:51;99074.03;;;-3.73;94.07
59831;BME280;45711;50.108;13.712;2024-01-10T13:01:17;99073.41;;;-3.59;94.79
59831;BME280;45711;50.108;13.712;2024-01-10T13:03:43;99071.72;;;-3.76;95.04
59831;BME280;45711;50.108;13.712;2024-01-10T13:06:09;99077.47;;;-3.72;94.65
59831;BME280;45711;50.108;13.712;2024-01-10T13:08:35;99075.22;;;-3.51;95.97
59831;BME280;45711;50.108;13.712;2024-01-10T13:11:01;99073.50;;;-3.76;94.94
59831;BME280;45711;50.108;13.712;2024-01-10T13:13:28;99073.09;;;-3.56;95.56
59831;BME280;45711;50.108;13.712;2024-01-10T13:15:53;99078.47;;;-3.65;92.69
59831;BME280;45711;50.108;13.712;2024-01-10T13:18:20;99074.19;;;-3.66;94.07
59831;BME280;45711;50.108;13.712;2024-01-10T13:20:46;99070.28;;;-3.62;95.40
59831;BME280;45711;50.108;13.712;2024-01-10T13:23:13;99068.38;;;-3.44;96.82
59831;BME280;45711;50.108;13.712;2024-01-10T13:25:40;99073.16;;;-3.15;97.83
59831;BME280;45711;50.108;13.712;2024-01-10T13:28:06;99063.00;;;-3.34;96.45
59831;BME280;45711;50.108;13.712;2024-01-10T13:30:33;99065.63;;;-3.26;96.36
59831;BME280;45711;50.108;13.712;2024-01-10T13:32:59;99069.84;;;-3.41;94.04
59831;BME280;45711;50.108;13.712;2024-01-10T13:35:25;99066.09;;;-3.22;95.34
59831;BME280;45711;50.108;13.712;2024-01-10T13:37:50;99066.44;;;-3.34;96.34
59831;BME280;45711;50.108;13.712;2024-01-10T13:40:16;99073.00;;;-3.21;97.52
59831;BME280;45711;50.108;13.712;2024-01-10T13:42:43;99081.03;;;-3.07;97.41
59831;BME280;45711;50.108;13.712;2024-01-10T13:45:10;99073.16;;;-3.23;96.35
59831;BME280;45711;50.108;13.712;2024-01-10T13:47:43;99074.91;;;-3.40;96.24
59831;BME280;45711;50.108;13.712;2024-01-10T13:50:09;99071.00;;;-3.44;91.69
59831;BME280;45711;50.108;13.712;2024-01-10T13:52:37;99073.75;;;-3.45;93.46
59831;BME280;45711;50.108;13.712;2024-01-10T13:55:08;99063.44;;;-3.55;91.94
59831;BME280;45711;50.108;13.712;2024-01-10T14:00:37;99060.50;;;-3.52;92.43
59831;BME280;45711;50.108;13.712;2024-01-10T14:03:09;99070.97;;;-3.60;93.82
59831;BME280;45711;50.108;13.712;2024-01-10T14:05:37;99072.28;;;-3.56;92.28
59831;BME280;45711;50.108;13.712;2024-01-10T14:08:03;99073.41;;;-3.59;94.09
59831;BME280;45711;50.108;13.712;2024-01-10T14:10:29;99066.94;;;-3.30;95.65
59831;BME280;45711;50.108;13.712;2024-01-10T14:12:54;99067.06;;;-3.48;90.45
59831;BME280;45711;50.108;13.712;2024-01-10T14:15:20;99070.00;;;-3.51;90.82
59831;BME280;45711;50.108;13.712;2024-01-10T14:17:46;99069.50;;;-3.46;92.74
59831;BME280;45711;50.108;13.712;2024-01-10T14:20:13;99071.63;;;-3.50;89.57
59831;BME280;45711;50.108;13.712;2024-01-10T14:22:39;99066.88;;;-3.55;87.75
59831;BME280;45711;50.108;13.712;2024-01-10T14:25:07;99072.94;;;-3.54;85.41
59831;BME280;45711;50.108;13.712;2024-01-10T14:27:34;99065.09;;;-3.46;86.91
59831;BME280;45711;50.108;13.712;2024-01-10T14:30:02;99069.34;;;-3.45;86.39
59831;BME280;45711;50.108;13.712;2024-01-10T14:32:28;99065.25;;;-3.56;85.09
59831;BME280;45711;50.108;13.712;2024-01-10T14:34:54;99063.44;;;-3.55;85.53
59831;BME280;45711;50.108;13.712;2024-01-10T14:37:21;99060.66;;;-3.54;84.41
59831;BME280;45711;50.108;13.712;2024-01-10T14:39:47;99063.28;;;-3.54;84.29
59831;BME280;45711;50.108;13.712;2024-01-10T14:42:13;99065.06;;;-3.54;84.31
59831;BME280;45711;50.108;13.712;2024-01-10T14:44:39;99063.28;;;-3.45;84.83
59831;BME280;45711;50.108;13.712;2024-01-10T14:47:05;99073.75;;;-3.54;82.64
59831;BME280;45711;50.108;13.712;2024-01-10T14:49:32;99071.28;;;-3.55;82.71
59831;BME280;45711;50.108;13.712;2024-01-10T14:51:57;99079.50;;;-3.42;84.93
59831;BME280;45711;50.108;13.712;2024-01-10T14:54:25;99072.75;;;-3.61;84.75
59831;BME280;45711;50.108;13.712;2024-01-10T14:56:50;99086.16;;;-3.64;84.29
59831;BME280;45711;50.108;13.712;2024-01-10T14:59:18;99085.63;;;-3.75;83.61
59831;BME280;45711;50.108;13.712;2024-01-10T15:01:44;99082.19;;;-3.76;83.16
59831;BME280;45711;50.108;13.712;2024-01-10T15:04:10;99086.28;;;-3.73;83.31
59831;BME280;45711;50.108;13.712;2024-01-10T15:06:36;99081.66;;;-3.80;81.33